Time;durP1;ratioP1;P1;durP2;ratioP2;P2;SDS_P1;SDS_P2;PMS_P1;PMS_P2;Temp;Humidity;BMP_temperature;BMP_pressure;BME280_temperature;BME280_humidity;BME280_pressure;Samples;Min_cycle;Max_cycle;Signal;HPM_P1;HPM_P2
2024/04/05 00:03:12;;;;;;;1999.90;999.90;;;;;;;10.69;100.00;100918.28;10276423;28;20105;-68
2024/04/05 00:08:14;;;;;;;1999.90;999.90;;;;;;;10.69;100.00;100913.91;10291917;28;20074;-69
2024/04/05 00:13:15;;;;;;;1999.90;999.90;;;;;;;10.99;100.00;100913.09;10291579;28;20117;-68
2024/04/05 00:18:17;;;;;;;1999.90;999.90;;;;;;;10.96;100.00;100902.78;10276075;28;20121;-69
2024/04/05 00:23:18;;;;;;;1999.90;999.90;;;;;;;10.74;100.00;100897.91;10275836;28;20051;-68
2024/04/05 00:28:20;;;;;;;1999.90;999.90;;;;;;;10.92;100.00;100893.41;10291731;28;20058;-68
2024/04/05 00:33:22;;;;;;;1999.90;999.90;;;;;;;11.09;100.00;100903.75;10291197;28;20051;-68
2024/04/05 00:38:24;;;;;;;1999.90;999.90;;;;;;;10.72;100.00;100900.63;10291176;28;20517;-68
2024/04/05 00:43:25;;;;;;;1999.90;999.90;;;;;;;10.97;100.00;100886.97;10275492;28;20051;-68
2024/04/05 00:48:27;;;;;;;1999.90;999.90;;;;;;;10.92;100.00;100898.66;10291155;28;20050;-69
2024/04/05 00:53:32;;;;;;;1999.90;999.90;;;;;;;11.09;100.00;100902.94;10290897;28;20055;-69
2024/04/05 00:58:33;;;;;;;1999.90;999.90;;;;;;;11.14;100.00;100903.50;10274502;28;20422;-68
2024/04/05 01:03:34;;;;;;;1999.90;999.90;;;;;;;11.14;100.00;100906.13;10290863;28;20047;-68
2024/04/05 01:08:37;;;;;;;1999.90;999.90;;;;;;;11.16;100.00;100904.25;10278883;28;20521;-68
2024/04/05 01:13:38;;;;;;;1999.90;999.90;;;;;;;11.26;100.00;100907.19;10281633;28;20050;-69
2024/04/05 01:18:41;;;;;;;1999.90;999.90;;;;;;;11.19;100.00;100908.47;10297539;28;20436;-68
2024/04/05 01:23:43;;;;;;;1999.90;999.90;;;;;;;11.11;100.00;100907.16;10340948;23;20057;-67
2024/04/05 01:28:44;;;;;;;1999.90;999.90;;;;;;;11.15;100.00;100899.97;10460407;28;20056;-67
2024/04/05 01:33:46;;;;;;;1999.90;999.90;;;;;;;11.22;100.00;100900.44;10459817;28;20041;-67
2024/04/05 01:38:47;;;;;;;1999.90;999.90;;;;;;;11.16;100.00;100909.50;10443090;28;20049;-67
2024/04/05 01:43:48;;;;;;;1999.90;999.90;;;;;;;11.27;100.00;100894.00;10443139;28;20106;-67
2024/04/05 01:48:50;;;;;;;1999.90;999.90;;;;;;;11.27;100.00;100888.75;10441905;28;20049;-67
2024/04/05 01:53:51;;;;;;;1999.90;999.90;;;;;;;11.31;100.00;100887.66;10459014;28;20052;-67
2024/04/05 01:58:53;;;;;;;1999.90;999.90;;;;;;;11.37;100.00;100894.31;10441815;28;20052;-67
2024/04/05 02:03:54;;;;;;;1999.90;999.90;;;;;;;11.38;100.00;100885.50;10459557;28;20124;-67
2024/04/05 02:08:56;;;;;;;1999.90;999.90;;;;;;;10.81;100.00;100880.94;10441330;28;20389;-67
2024/04/05 02:13:57;;;;;;;1999.90;999.90;;;;;;;10.92;100.00;100873.31;10441424;28;20054;-67
2024/04/05 02:18:58;;;;;;;1999.90;999.90;;;;;;;11.03;100.00;100862.22;10439862;28;20480;-67
2024/04/05 02:24:00;;;;;;;1999.90;999.90;;;;;;;11.08;100.00;100861.94;10457532;28;20053;-67
2024/04/05 02:29:01;;;;;;;1999.90;999.90;;;;;;;10.90;100.00;100863.84;10457777;28;20060;-67
2024/04/05 02:34:03;;;;;;;1999.90;999.90;;;;;;;11.09;100.00;100874.94;10440200;28;20045;-67
2024/04/05 02:39:06;;;;;;;1999.90;999.90;;;;;;;11.01;100.00;100890.28;10441025;28;20075;-67
2024/04/05 02:44:07;;;;;;;1999.90;999.90;;;;;;;11.04;100.00;100876.16;10457600;28;20049;-68
2024/04/05 02:49:09;;;;;;;1999.90;999.90;;;;;;;11.03;100.00;100870.06;10456935;28;20052;-68
2024/04/05 02:54:10;;;;;;;1999.90;999.90;;;;;;;11.15;100.00;100884.25;10439974;28;20049;-67
2024/04/05 02:59:11;;;;;;;1999.90;999.90;;;;;;;11.03;100.00;100877.94;10456861;28;20049;-67
2024/04/05 03:04:13;;;;;;;1999.90;999.90;;;;;;;11.01;100.00;100894.66;10455734;28;20408;-67
2024/04/05 03:09:14;;;;;;;1999.90;999.90;;;;;;;11.26;100.00;100892.31;10455393;28;20049;-67
2024/04/05 03:14:15;;;;;;;1999.90;999.90;;;;;;;11.07;100.00;100886.47;10455695;28;20056;-67
2024/04/05 03:19:17;;;;;;;1999.90;999.90;;;;;;;11.38;100.00;100888.13;10438666;28;20119;-67
2024/04/05 03:24:19;;;;;;;1999.90;999.90;;;;;;;11.31;100.00;100876.31;10422233;28;20488;-67
2024/04/05 03:29:20;;;;;;;1999.90;999.90;;;;;;;11.43;100.00;100878.22;10455607;28;20053;-67
2024/04/05 03:34:21;;;;;;;1999.90;999.90;;;;;;;11.44;100.00;100869.41;10439366;28;20053;-67
2024/04/05 03:39:23;;;;;;;1999.90;999.90;;;;;;;11.48;100.00;100870.06;10455012;28;20045;-67
2024/04/05 03:44:24;;;;;;;1999.90;999.90;;;;;;;11.58;100.00;100872.97;10455346;28;20111;-67
2024/04/05 03:49:28;;;;;;;1999.90;999.90;;;;;;;11.42;100.00;100871.28;10438437;28;20053;-67
2024/04/05 03:54:30;;;;;;;1999.90;999.90;;;;;;;11.49;100.00;100875.22;10455104;28;20057;-67
2024/04/05 03:59:31;;;;;;;1999.90;999.90;;;;;;;11.55;100.00;100862.66;10454670;28;20052;-67
2024/04/05 04:04:33;;;;;;;1999.90;999.90;;;;;;;11.48;100.00;100868.28;10454317;28;20480;-67
2024/04/05 04:09:34;;;;;;;1999.90;999.90;;;;;;;11.73;100.00;100869.41;10454128;28;20408;-67
2024/04/05 04:14:38;;;;;;;1999.90;999.90;;;;;;;11.33;100.00;100875.28;10437686;28;20420;-67
2024/04/05 04:19:41;;;;;;;1999.90;999.90;;;;;;;11.46;100.00;100872.75;10454138;28;20427;-67
2024/04/05 04:24:42;;;;;;;1999.90;999.90;;;;;;;11.41;100.00;100855.63;10453967;28;20057;-67
2024/04/05 04:29:43;;;;;;;1999.90;999.90;;;;;;;11.33;100.00;100827.25;10454428;28;20072;-68
2024/04/05 04:34:45;;;;;;;1999.90;999.90;;;;;;;11.38;100.00;100845.31;10454011;28;20180;-68
2024/04/05 04:39:46;;;;;;;1999.90;999.90;;;;;;;11.66;100.00;100855.81;10453038;28;20407;-68
2024/04/05 04:44:48;;;;;;;1999.90;999.90;;;;;;;11.35;100.00;100856.84;10461204;28;20064;-68
2024/04/05 04:49:49;;;;;;;1999.90;999.90;;;;;;;11.38;100.00;100861.06;10461589;28;20056;-68
2024/04/05 04:54:53;;;;;;;1999.90;999.90;;;;;;;11.66;100.00;100860.25;10462007;28;20049;-68
2024/04/05 04:59:54;;;;;;;1999.90;999.90;;;;;;;11.42;100.00;100862.56;10445407;28;20053;-67
2024/04/05 05:04:56;;;;;;;1999.90;999.90;;;;;;;11.45;100.00;100863.22;10461044;28;20053;-67
2024/04/05 05:09:57;;;;;;;1999.90;999.90;;;;;;;11.45;100.00;100847.50;10443533;28;20075;-67
2024/04/05 05:14:58;;;;;;;1999.90;999.90;;;;;;;11.34;100.00;100849.91;10460269;28;20455;-67
2024/04/05 05:20:00;;;;;;;1999.90;999.90;;;;;;;11.38;100.00;100827.84;10460543;28;20048;-68
2024/04/05 05:25:02;;;;;;;1999.90;999.90;;;;;;;11.43;100.00;100828.41;10443341;28;20112;-67
2024/04/05 05:30:04;;;;;;;1999.90;999.90;;;;;;;11.33;100.00;100841.22;10459487;28;20443;-67
2024/04/05 05:35:06;;;;;;;1999.90;999.90;;;;;;;11.38;100.00;100829.59;10443650;28;20053;-67
2024/04/05 05:40:08;;;;;;;1999.90;999.90;;;;;;;11.57;100.00;100816.25;10460400;28;20053;-68
2024/04/05 05:45:09;;;;;;;1999.90;999.90;;;;;;;11.54;100.00;100801.53;10459649;28;20064;-68
2024/04/05 05:50:11;;;;;;;1999.90;999.90;;;;;;;11.65;100.00;100798.22;10459518;28;20045;-68
2024/04/05 05:55:13;;;;;;;1999.90;999.90;;;;;;;11.65;100.00;100804.34;10458743;28;20056;-68
2024/04/05 06:00:14;;;;;;;1999.90;999.90;;;;;;;11.84;100.00;100772.53;10458578;28;20428;-68
2024/04/05 06:05:19;;;;;;;1999.90;999.90;;;;;;;11.92;100.00;100760.75;10458990;28;20056;-68
2024/04/05 06:10:21;;;;;;;1999.90;999.90;;;;;;;11.93;100.00;100767.69;10458484;28;20427;-68
2024/04/05 06:15:22;;;;;;;1999.90;999.90;;;;;;;11.95;100.00;100761.38;10458000;28;20060;-68
2024/04/05 06:20:23;;;;;;;1999.90;999.90;;;;;;;12.20;100.00;100746.69;10457865;28;20123;-68
2024/04/05 06:25:25;;;;;;;1999.90;999.90;;;;;;;12.20;100.00;100762.44;10457533;28;20056;-68
2024/04/05 06:30:26;;;;;;;1999.90;999.90;;;;;;;12.21;100.00;100743.16;10457797;28;20048;-68
2024/04/05 06:35:28;;;;;;;1999.90;999.90;;;;;;;12.36;100.00;100736.06;10457141;28;20570;-68
2024/04/05 06:40:29;;;;;;;1999.90;999.90;;;;;;;12.25;100.00;100713.97;10456931;28;20507;-68
2024/04/05 06:45:31;;;;;;;1999.90;999.90;;;;;;;12.25;100.00;100715.75;10457372;28;20049;-68
2024/04/05 06:50:32;;;;;;;1999.90;999.90;;;;;;;12.46;100.00;100713.50;10456200;28;20554;-68
2024/04/05 06:55:34;;;;;;;1999.90;999.90;;;;;;;12.56;100.00;100709.31;10456215;28;20053;-68
2024/04/05 07:00:35;;;;;;;1999.90;999.90;;;;;;;12.88;100.00;100687.03;10456864;28;20107;-68
2024/04/05 07:05:37;;;;;;;1999.90;999.90;;;;;;;12.98;100.00;100694.19;10456100;28;20057;-68
2024/04/05 07:10:38;;;;;;;1999.90;999.90;;;;;;;13.06;100.00;100680.50;10456349;28;20057;-68
2024/04/05 07:15:39;;;;;;;1999.90;999.90;;;;;;;12.98;100.00;100670.53;10439025;28;20416;-68
2024/04/05 07:20:41;;;;;;;1999.90;999.90;;;;;;;13.22;100.00;100677.66;10455722;28;20037;-68
2024/04/05 07:25:42;;;;;;;1999.90;999.90;;;;;;;13.16;100.00;100662.28;10454842;28;20493;-69
2024/04/05 07:30:43;;;;;;;1999.90;999.90;;;;;;;13.23;100.00;100663.56;10438673;28;20420;-68
2024/04/05 07:35:45;;;;;;;1999.90;999.90;;;;;;;13.38;100.00;100670.41;10438097;28;20487;-68
2024/04/05 07:40:46;;;;;;;1999.90;999.90;;;;;;;13.27;100.00;100658.94;10454774;28;20048;-68
2024/04/05 07:45:47;;;;;;;1999.90;999.90;;;;;;;13.45;100.00;100652.38;10454867;28;20107;-68
2024/04/05 07:50:49;;;;;;;1999.90;999.90;;;;;;;13.59;100.00;100653.19;10454978;28;20045;-68
2024/04/05 07:55:51;;;;;;;1999.90;999.90;;;;;;;13.49;100.00;100631.97;10455308;28;20053;-68
2024/04/05 08:00:52;;;;;;;1999.90;999.90;;;;;;;13.56;100.00;100631.38;10454169;28;20488;-68
2024/04/05 08:05:54;;;;;;;1999.90;999.90;;;;;;;13.69;100.00;100623.44;10454909;28;20111;-68
2024/04/05 08:11:02;;;;;;;1999.90;999.90;;;;;;;13.74;100.00;100616.06;10437653;28;20052;-68
2024/04/05 08:16:07;;;;;;;1999.90;999.90;;;;;;;13.68;100.00;100607.78;10439218;28;20052;-68
2024/04/05 08:21:08;;;;;;;1999.90;999.90;;;;;;;13.74;100.00;100609.97;10462623;28;20484;-68
2024/04/05 08:26:10;;;;;;;1999.90;999.90;;;;;;;13.66;100.00;100615.78;10429350;28;20393;-68
2024/04/05 08:31:11;;;;;;;1999.90;999.90;;;;;;;13.28;100.00;100597.50;10446100;28;20060;-68
2024/04/05 08:36:14;;;;;;;1999.90;999.90;;;;;;;13.52;100.00;100587.88;10462636;28;20071;-68
2024/04/05 08:41:18;;;;;;;1999.90;999.90;;;;;;;13.42;100.00;100565.81;10462236;28;20056;-68
2024/04/05 08:46:19;;;;;;;1999.90;999.90;;;;;;;13.60;100.00;100542.59;10445385;28;20061;-68
2024/04/05 08:51:21;;;;;;;1999.90;999.90;;;;;;;13.66;100.00;100531.59;10444833;28;20491;-68
2024/04/05 08:56:22;;;;;;;1999.90;999.90;;;;;;;13.64;100.00;100535.31;10444705;28;20488;-66
2024/04/05 09:01:25;;;;;;;1999.90;999.90;;;;;;;13.67;100.00;100525.41;10461841;28;20049;-65
2024/04/05 09:06:26;;;;;;;1999.90;999.90;;;;;;;13.63;100.00;100509.94;10461595;28;20049;-65
2024/04/05 09:11:28;;;;;;;1999.90;999.90;;;;;;;13.82;100.00;100556.75;10461294;28;20041;-65
2024/04/05 09:16:31;;;;;;;1999.90;999.90;;;;;;;13.78;100.00;100597.41;10460692;28;20119;-68
2024/04/05 09:21:32;;;;;;;1999.90;999.90;;;;;;;13.58;100.00;100623.38;10444514;28;20106;-68
2024/04/05 09:26:34;;;;;;;1999.90;999.90;;;;;;;13.46;100.00;100613.78;10459282;28;20111;-68
2024/04/05 09:31:36;;;;;;;1999.90;999.90;;;;;;;13.56;100.00;100641.91;10460209;28;20061;-68
2024/04/05 09:36:37;;;;;;;1999.90;999.90;;;;;;;13.53;100.00;100634.28;10460189;28;20057;-68
2024/04/05 09:41:40;;;;;;;1999.90;999.90;;;;;;;13.60;100.00;100632.03;10443426;28;20060;-68
2024/04/05 09:46:43;;;;;;;1999.90;999.90;;;;;;;13.65;100.00;100629.03;10459206;28;20119;-68
2024/04/05 09:51:45;;;;;;;1999.90;999.90;;;;;;;13.54;100.00;100638.56;10442581;28;20405;-68
2024/04/05 09:56:46;;;;;;;1999.90;999.90;;;;;;;13.54;100.00;100635.09;10459269;28;20053;-68
2024/04/05 10:01:48;;;;;;;1999.90;999.90;;;;;;;13.69;100.00;100631.34;10442637;28;20079;-68
2024/04/05 10:06:49;;;;;;;1999.90;999.90;;;;;;;13.98;100.00;100599.41;10442731;28;20053;-68
2024/04/05 10:11:51;;;;;;;1999.90;999.90;;;;;;;14.11;100.00;100583.53;10458800;28;20111;-68
2024/04/05 10:17:04;;;;;;;1999.90;999.90;;;;;;;14.39;100.00;100574.38;10458657;28;20053;-68
2024/04/05 10:22:08;;;;;;;1999.90;999.90;;;;;;;14.36;100.00;100571.97;10424656;28;20408;-68
2024/04/05 10:27:22;;;;;;;1999.90;999.90;;;;;;;14.93;100.00;100551.75;10441198;28;20558;-68
2024/04/05 10:32:24;;;;;;;1999.90;999.90;;;;;;;14.99;100.00;100556.53;10440878;28;20416;-68
2024/04/05 10:37:26;;;;;;;1999.90;999.90;;;;;;;14.90;100.00;100567.81;10458005;28;20104;-68
2024/04/05 10:42:29;;;;;;;1999.90;999.90;;;;;;;14.97;100.00;100545.25;10456730;28;20049;-68
2024/04/05 10:47:31;;;;;;;1999.90;999.90;;;;;;;15.25;100.00;100553.59;10457252;28;20060;-68
2024/04/05 10:52:36;;;;;;;1999.90;999.90;;;;;;;15.79;100.00;100541.31;10440567;28;20076;-68
2024/04/05 10:57:37;;;;;;;1999.90;999.90;;;;;;;15.85;100.00;100535.50;10456773;28;20065;-68
2024/04/05 11:02:43;;;;;;;1999.90;999.90;;;;;;;15.70;100.00;100521.78;10440468;28;20053;-68
2024/04/05 11:07:45;;;;;;;1999.90;999.90;;;;;;;15.57;100.00;100521.13;10439636;28;20052;-68
2024/04/05 11:12:47;;;;;;;1999.90;999.90;;;;;;;15.59;100.00;100519.19;10456098;28;20049;-67
2024/04/05 11:18:03;;;;;;;1999.90;999.90;;;;;;;15.81;100.00;100512.16;10439851;28;20168;-68
2024/04/05 11:23:21;;;;;;;1999.90;999.90;;;;;;;15.86;100.00;100537.19;10439453;28;20053;-68
2024/04/05 11:28:23;;;;;;;1999.90;999.90;;;;;;;16.04;100.00;100537.44;10455207;28;20480;-68
2024/04/05 11:33:24;;;;;;;1999.90;999.90;;;;;;;15.96;100.00;100526.69;10438809;28;20053;-68
2024/04/05 11:38:26;;;;;;;1999.90;999.90;;;;;;;15.95;100.00;100535.56;10438721;28;20052;-65
2024/04/05 11:43:27;;;;;;;1999.90;999.90;;;;;;;16.17;100.00;100510.81;10438373;28;20049;-68
2024/04/05 11:48:29;;;;;;;1999.90;999.90;;;;;;;16.19;100.00;100515.97;10454280;28;20400;-68
2024/04/05 11:53:31;;;;;;;1999.90;999.90;;;;;;;16.24;100.00;100525.19;10438138;28;20068;-68
2024/04/05 11:58:32;;;;;;;1999.90;999.90;;;;;;;15.99;100.00;100513.22;10455028;28;20064;-68
2024/04/05 12:03:33;;;;;;;1999.90;999.90;;;;;;;16.57;100.00;100512.66;10454850;28;20052;-68
2024/04/05 12:08:36;;;;;;;1999.90;999.90;;;;;;;16.69;99.20;100526.59;10454872;28;20056;-68
2024/04/05 12:13:38;;;;;;;1999.90;999.90;;;;;;;16.45;100.00;100533.06;10454218;28;20104;-68
2024/04/05 12:18:39;;;;;;;1999.90;999.90;;;;;;;16.27;95.14;100529.34;10454484;28;20053;-68
2024/04/05 12:23:41;;;;;;;1999.90;999.90;;;;;;;15.94;96.61;100544.47;10454062;28;20060;-68
2024/04/05 12:28:42;;;;;;;1999.90;999.90;;;;;;;15.70;100.00;100584.25;10454421;28;20049;-67
2024/04/05 12:33:43;;;;;;;1999.90;999.90;;;;;;;15.01;100.00;100631.06;10454124;28;20045;-68
2024/04/05 12:38:46;;;;;;;1999.90;999.90;;;;;;;14.96;100.00;100627.97;10454342;28;20064;-66
2024/04/05 12:43:47;;;;;;;1999.90;999.90;;;;;;;14.91;100.00;100638.03;10421214;28;20048;-66
2024/04/05 12:48:49;;;;;;;1999.90;999.90;;;;;;;15.10;100.00;100647.97;10453243;28;20079;-66
2024/04/05 12:53:50;;;;;;;1999.90;999.90;;;;;;;15.29;100.00;100638.59;10453020;28;20401;-66
2024/04/05 12:58:52;;;;;;;1999.90;999.90;;;;;;;15.50;100.00;100641.28;10436791;28;20056;-67
2024/04/05 13:03:53;;;;;;;1999.90;999.90;;;;;;;15.97;100.00;100621.63;10458082;28;20056;-67
2024/04/05 13:08:55;;;;;;;1999.90;999.90;;;;;;;15.71;100.00;100621.06;10444032;28;20412;-67
2024/04/05 13:13:56;;;;;;;1999.90;999.90;;;;;;;15.85;100.00;100640.25;10460197;28;20488;-67
2024/04/05 13:18:58;;;;;;;1999.90;999.90;;;;;;;15.73;100.00;100636.78;10460606;28;20061;-66
2024/04/05 13:23:59;;;;;;;1999.90;999.90;;;;;;;16.15;100.00;100635.09;10460475;28;20550;-66
2024/04/05 13:29:00;;;;;;;1999.90;999.90;;;;;;;16.20;100.00;100639.16;10460755;28;20052;-66
2024/04/05 13:34:03;;;;;;;1999.90;999.90;;;;;;;16.20;100.00;100662.91;10459807;28;20488;-66
2024/04/05 13:39:09;;;;;;;1999.90;999.90;;;;;;;16.50;100.00;100657.69;10466920;22;20504;-66
2024/04/05 13:44:10;;;;;;;1999.90;999.90;;;;;;;16.58;100.00;100654.41;10443605;28;20147;-66
2024/04/05 13:49:12;;;;;;;1999.90;999.90;;;;;;;16.82;97.40;100662.03;10442859;28;20411;-66
2024/04/05 13:54:13;;;;;;;1999.90;999.90;;;;;;;18.16;93.41;100666.13;10442774;28;20484;-66
2024/04/05 13:59:15;;;;;;;1999.90;999.90;;;;;;;19.49;85.46;100648.38;10443299;28;20053;-66
2024/04/05 14:04:16;;;;;;;1999.90;999.90;;;;;;;19.19;83.12;100644.25;10442736;28;20060;-66
2024/04/05 14:09:18;;;;;;;1999.90;999.90;;;;;;;19.37;79.13;100654.91;10426199;28;20060;-66
2024/04/05 14:14:20;;;;;;;1999.90;999.90;;;;;;;18.57;79.22;100650.03;10441744;28;20045;-66
2024/04/05 14:19:21;;;;;;;1999.90;999.90;;;;;;;19.67;78.23;100635.13;10441659;28;20404;-66
2024/04/05 14:24:23;;;;;;;1999.90;999.90;;;;;;;21.10;75.32;100638.47;10442074;28;20080;-66
2024/04/05 14:29:24;;;;;;;1999.90;999.90;;;;;;;20.74;69.14;100643.94;10441326;28;20480;-66
2024/04/05 14:34:26;;;;;;;1999.90;999.90;;;;;;;22.96;65.04;100654.84;10441091;28;20507;-66
2024/04/05 14:39:32;;;;;;;1999.90;999.90;;;;;;;21.30;67.55;100650.53;10424945;28;20061;-66
2024/04/05 14:44:34;;;;;;;1999.90;999.90;;;;;;;22.18;66.33;100643.00;10441417;28;20068;-66
2024/04/05 14:49:35;;;;;;;1999.90;999.90;;;;;;;21.80;64.75;100650.66;10441167;28;20060;-66
2024/04/05 14:54:37;;;;;;;1999.90;999.90;;;;;;;21.04;65.65;100639.94;10440562;28;20408;-66
2024/04/05 14:59:38;;;;;;;1999.90;999.90;;;;;;;21.91;62.17;100638.84;10440811;28;20049;-66
2024/04/05 15:04:39;;;;;;;1999.90;999.90;;;;;;;20.71;64.65;100649.59;10440581;28;20063;-66
2024/04/05 15:09:41;;;;;;;1999.90;999.90;;;;;;;22.37;63.30;100645.31;10440265;28;20057;-66
2024/04/05 15:14:43;;;;;;;1999.90;999.90;;;;;;;21.42;66.62;100647.56;10423186;28;20104;-66
2024/04/05 15:19:44;;;;;;;1999.90;999.90;;;;;;;20.78;66.04;100680.72;10406929;28;20412;-66
2024/04/05 15:24:46;;;;;;;1999.90;999.90;;;;;;;20.90;63.63;100675.16;10439502;28;20049;-66
2024/04/05 15:29:48;;;;;;;1999.90;999.90;;;;;;;20.53;62.59;100674.41;10423370;28;20064;-66
2024/04/05 15:34:51;;;;;;;1999.90;999.90;;;;;;;21.13;60.27;100676.25;10439288;28;20045;-66
2024/04/05 15:39:52;;;;;;;1999.90;999.90;;;;;;;20.05;67.25;100691.63;10439296;28;20103;-66
2024/04/05 15:44:54;;;;;;;1999.90;999.90;;;;;;;20.35;63.85;100716.97;10438896;28;20048;-66
2024/04/05 15:49:56;;;;;;;1999.90;999.90;;;;;;;19.83;66.77;100722.13;10439217;28;20060;-66
2024/04/05 15:54:58;;;;;;;1999.90;999.90;;;;;;;20.15;65.20;100724.28;10438460;28;20052;-66
2024/04/05 15:59:59;;;;;;;1999.90;999.90;;;;;;;19.68;60.90;100727.91;10439081;28;20069;-66
2024/04/05 16:05:00;;;;;;;1999.90;999.90;;;;;;;19.90;61.09;100727.69;10438841;28;20045;-66
2024/04/05 16:10:04;;;;;;;1999.90;999.90;;;;;;;19.45;62.29;100732.81;10437966;28;20096;-66
2024/04/05 16:15:06;;;;;;;1999.90;999.90;;;;;;;18.83;62.54;100750.19;10421707;28;20455;-66
2024/04/05 16:20:08;;;;;;;1999.90;999.90;;;;;;;18.51;62.01;100743.41;10438407;28;20053;-66
2024/04/05 16:25:11;;;;;;;1999.90;999.90;;;;;;;19.16;63.70;100754.16;10437936;28;20053;-66
2024/04/05 16:30:12;;;;;;;1999.90;999.90;;;;;;;18.75;64.95;100772.94;10421898;28;20052;-66
2024/04/05 16:35:14;;;;;;;1999.90;999.90;;;;;;;18.81;65.78;100770.69;10421096;28;20492;-67
2024/04/05 16:40:15;;;;;;;1999.90;999.90;;;;;;;18.06;66.22;100775.75;10427203;28;20072;-66
2024/04/05 16:45:17;;;;;;;1999.90;999.90;;;;;;;18.12;68.09;100776.03;10446296;28;20056;-66
2024/04/05 16:50:18;;;;;;;1999.90;999.90;;;;;;;18.56;67.73;100786.25;10445926;28;20106;-66
2024/04/05 16:55:19;;;;;;;1999.90;999.90;;;;;;;18.45;67.73;100795.16;10445819;28;20057;-66
2024/04/05 17:00:21;;;;;;;1999.90;999.90;;;;;;;17.69;68.74;100794.88;10445753;28;20064;-66
2024/04/05 17:05:22;;;;;;;1999.90;999.90;;;;;;;17.66;66.55;100789.84;10428435;28;20392;-66
2024/04/05 17:10:47;;;;;;;1999.90;999.90;;;;;;;17.69;68.23;100808.94;10444529;28;20494;-66
2024/04/05 17:15:48;;;;;;;1999.90;999.90;;;;;;;17.45;68.25;100817.19;10429094;28;20111;-66
2024/04/05 17:20:50;;;;;;;1999.90;999.90;;;;;;;17.34;68.90;100830.50;10427595;28;20447;-66
2024/04/05 17:25:51;;;;;;;1999.90;999.90;;;;;;;17.40;70.53;100824.66;10444221;28;20427;-66
2024/04/05 17:30:53;;;;;;;1999.90;999.90;;;;;;;17.26;70.21;100834.66;10443883;28;20511;-66
2024/04/05 17:35:55;;;;;;;1999.90;999.90;;;;;;;17.23;70.64;100850.78;10444331;28;20052;-66
2024/04/05 17:40:57;;;;;;;1999.90;999.90;;;;;;;16.83;70.99;100856.75;10410789;28;20444;-66
2024/04/05 17:45:58;;;;;;;1999.90;999.90;;;;;;;16.75;71.13;100851.25;10443551;28;20118;-66
2024/04/05 17:51:01;;;;;;;1999.90;999.90;;;;;;;16.57;71.70;100866.81;10426865;28;20114;-66
2024/04/05 17:56:02;;;;;;;1999.90;999.90;;;;;;;16.68;70.08;100868.59;10426310;28;20057;-67
2024/04/05 18:01:04;;;;;;;1999.90;999.90;;;;;;;16.49;70.17;100880.66;10442349;28;20049;-66
2024/04/05 18:06:05;;;;;;;1999.90;999.90;;;;;;;16.46;70.62;100880.06;10443101;28;20049;-66
2024/04/05 18:11:07;;;;;;;1999.90;999.90;;;;;;;16.13;73.28;100881.81;10442564;28;20102;-67
2024/04/05 18:16:08;;;;;;;1999.90;999.90;;;;;;;15.78;76.16;100894.19;10426060;28;20075;-67
2024/04/05 18:21:10;;;;;;;1999.90;999.90;;;;;;;15.40;80.63;100899.75;10442252;28;20052;-67
2024/04/05 18:26:11;;;;;;;1999.90;999.90;;;;;;;15.26;81.83;100897.31;10425648;28;20049;-66
2024/04/05 18:31:12;;;;;;;1999.90;999.90;;;;;;;14.90;84.57;100909.66;10441475;28;20060;-67
2024/04/05 18:36:14;;;;;;;1999.90;999.90;;;;;;;14.73;88.15;100924.91;10425514;28;20055;-67
2024/04/05 18:41:15;;;;;;;1999.90;999.90;;;;;;;14.41;89.90;100927.19;10424231;28;20104;-66
2024/04/05 18:46:19;;;;;;;1999.90;999.90;;;;;;;14.10;96.20;100932.00;10423850;28;20381;-67
2024/04/05 18:51:20;;;;;;;1999.90;999.90;;;;;;;13.92;95.36;100942.88;10424452;28;20049;-67
2024/04/05 18:56:22;;;;;;;1999.90;999.90;;;;;;;13.88;96.25;100953.69;10440389;28;20484;-66
2024/04/05 19:01:23;;;;;;;1999.90;999.90;;;;;;;13.67;98.70;100964.75;10423747;28;20060;-66
2024/04/05 19:06:25;;;;;;;1999.90;999.90;;;;;;;13.49;100.00;100966.00;10424247;28;20072;-67
2024/04/05 19:11:26;;;;;;;1999.90;999.90;;;;;;;13.42;100.00;100978.72;10423378;28;20404;-66
2024/04/05 19:16:30;;;;;;;1999.90;999.90;;;;;;;13.11;100.00;100975.44;10440307;28;20057;-67
2024/04/05 19:21:33;;;;;;;1999.90;999.90;;;;;;;12.95;100.00;100972.13;10423584;28;20052;-66
2024/04/05 19:26:35;;;;;;;1999.90;999.90;;;;;;;12.73;100.00;100981.38;10439503;28;20053;-66
2024/04/05 19:31:36;;;;;;;1999.90;999.90;;;;;;;12.76;100.00;100986.44;10439518;28;20163;-66
2024/04/05 19:36:37;;;;;;;1999.90;999.90;;;;;;;12.59;100.00;100989.25;10422675;28;20060;-66
2024/04/05 19:41:41;;;;;;;1999.90;999.90;;;;;;;12.61;100.00;100997.91;10438715;28;20067;-66
2024/04/05 19:46:42;;;;;;;1999.90;999.90;;;;;;;12.41;100.00;101014.91;10438402;28;20053;-66
2024/04/05 19:51:47;;;;;;;1999.90;999.90;;;;;;;12.47;100.00;100998.75;10438844;28;20049;-67
2024/04/05 19:56:48;;;;;;;1999.90;999.90;;;;;;;12.45;100.00;101004.09;10438942;28;20064;-66
2024/04/05 20:01:49;;;;;;;1999.90;999.90;;;;;;;12.52;100.00;101006.34;10422376;28;20049;-66
2024/04/05 20:06:51;;;;;;;1999.90;999.90;;;;;;;12.41;100.00;101020.16;10438404;28;20053;-67
2024/04/05 20:11:52;;;;;;;1999.90;999.90;;;;;;;12.25;100.00;101017.63;10442795;28;20063;-67
2024/04/05 20:16:53;;;;;;;1999.90;999.90;;;;;;;12.38;100.00;101010.69;10452249;28;20061;-67
2024/04/05 20:21:55;;;;;;;1999.90;999.90;;;;;;;12.31;100.00;101009.38;10452369;28;20064;-66
2024/04/05 20:26:56;;;;;;;1999.90;999.90;;;;;;;12.20;100.00;101004.75;10452199;28;20053;-66
2024/04/05 20:37:17;;;;;;;1999.90;999.90;;;;;;;11.87;100.00;101016.34;10451699;28;20053;-66
2024/04/05 20:42:19;;;;;;;1999.90;999.90;;;;;;;11.96;100.00;101016.75;10435354;28;20057;-66
2024/04/05 20:47:21;;;;;;;1999.90;999.90;;;;;;;11.98;100.00;101007.84;10435244;28;20057;-66
2024/04/05 20:52:22;;;;;;;1999.90;999.90;;;;;;;11.94;100.00;101003.72;10451171;28;20045;-66
2024/04/05 20:57:24;;;;;;;1999.90;999.90;;;;;;;11.83;100.00;101014.81;10451428;28;20064;-66
2024/04/05 21:02:25;;;;;;;1999.90;999.90;;;;;;;11.78;100.00;100993.25;10434981;28;20147;-66
2024/04/05 21:07:28;;;;;;;1999.90;999.90;;;;;;;11.79;100.00;101012.50;10451199;28;20056;-66
2024/04/05 21:12:29;;;;;;;1999.90;999.90;;;;;;;11.79;100.00;101005.44;10450946;28;20051;-66
2024/04/05 21:17:31;;;;;;;1999.90;999.90;;;;;;;12.00;100.00;101010.38;10450984;28;20063;-66
2024/04/05 21:22:34;;;;;;;1999.90;999.90;;;;;;;12.25;100.00;101005.34;10448908;28;20059;-66
2024/04/05 21:27:35;;;;;;;1999.90;999.90;;;;;;;12.11;100.00;101002.72;10444626;28;20056;-66
2024/04/05 21:32:36;;;;;;;1999.90;999.90;;;;;;;12.41;100.00;101000.00;10427656;28;20045;-66
2024/04/05 21:37:38;;;;;;;1999.90;999.90;;;;;;;12.46;100.00;101004.97;10443153;28;20523;-66
2024/04/05 21:42:39;;;;;;;1999.90;999.90;;;;;;;12.59;100.00;100999.78;10443154;28;20106;-66
2024/04/05 21:47:41;;;;;;;1999.90;999.90;;;;;;;12.63;100.00;100993.41;10443216;28;20389;-66